sensor_id;sensor_type;location;lat;lon;timestamp;temperature;humidity
7708;DHT22;3896;48.758;8.888;2022-12-07T00:01:32;4.90;99.90
7708;DHT22;3896;48.758;8.888;2022-12-07T00:04:00;4.80;99.90
7708;DHT22;3896;48.758;8.888;2022-12-07T00:06:33;4.90;99.90
7708;DHT22;3896;48.758;8.888;2022-12-07T00:08:59;4.90;99.90
7708;DHT22;3896;48.758;8.888;2022-12-07T00:11:25;4.90;99.90
7708;DHT22;3896;48.758;8.888;2022-12-07T00:13:55;4.90;99.90
7708;DHT22;3896;48.758;8.888;2022-12-07T00:16:22;4.90;99.90
7708;DHT22;3896;48.758;8.888;2022-12-07T00:18:48;4.90;99.90
7708;DHT22;3896;48.758;8.888;2022-12-07T00:21:16;4.90;99.90
7708;DHT22;3896;48.758;8.888;2022-12-07T00:23:45;4.90;99.90
7708;DHT22;3896;48.758;8.888;2022-12-07T00:26:35;4.90;99.90
7708;DHT22;3896;48.758;8.888;2022-12-07T00:29:06;4.90;99.90
7708;DHT22;3896;48.758;8.888;2022-12-07T00:31:36;4.90;99.90
7708;DHT22;3896;48.758;8.888;2022-12-07T00:34:05;4.90;99.90
7708;DHT22;3896;48.758;8.888;2022-12-07T00:36:30;4.90;99.90
7708;DHT22;3896;48.758;8.888;2022-12-07T00:38:58;4.90;99.90
7708;DHT22;3896;48.758;8.888;2022-12-07T00:41:26;4.90;99.90
7708;DHT22;3896;48.758;8.888;2022-12-07T00:43:52;4.80;99.90
7708;DHT22;3896;48.758;8.888;2022-12-07T00:46:19;4.80;99.90
7708;DHT22;3896;48.758;8.888;2022-12-07T00:48:45;4.80;99.90
7708;DHT22;3896;48.758;8.888;2022-12-07T00:51:13;4.80;99.90
7708;DHT22;3896;48.758;8.888;2022-12-07T00:53:38;4.80;99.90
7708;DHT22;3896;48.758;8.888;2022-12-07T00:56:06;4.80;99.90
7708;DHT22;3896;48.758;8.888;2022-12-07T00:58:31;4.80;99.90
7708;DHT22;3896;48.758;8.888;2022-12-07T01:01:00;4.80;99.90
7708;DHT22;3896;48.758;8.888;2022-12-07T01:03:26;4.80;99.90
7708;DHT22;3896;48.758;8.888;2022-12-07T01:05:53;4.80;99.90
7708;DHT22;3896;48.758;8.888;2022-12-07T01:08:20;4.80;99.90
7708;DHT22;3896;48.758;8.888;2022-12-07T01:10:46;4.70;99.90
7708;DHT22;3896;48.758;8.888;2022-12-07T01:13:12;4.70;99.90
7708;DHT22;3896;48.758;8.888;2022-12-07T01:15:42;4.70;99.90
7708;DHT22;3896;48.758;8.888;2022-12-07T01:18:08;4.70;99.90
7708;DHT22;3896;48.758;8.888;2022-12-07T01:20:34;4.70;99.90
7708;DHT22;3896;48.758;8.888;2022-12-07T01:23:00;4.70;99.90
7708;DHT22;3896;48.758;8.888;2022-12-07T01:25:25;4.70;99.90
7708;DHT22;3896;48.758;8.888;2022-12-07T01:27:51;4.70;99.90
7708;DHT22;3896;48.758;8.888;2022-12-07T01:30:16;4.70;99.90
7708;DHT22;3896;48.758;8.888;2022-12-07T01:32:42;4.70;99.90
7708;DHT22;3896;48.758;8.888;2022-12-07T01:35:08;4.70;99.90
7708;DHT22;3896;48.758;8.888;2022-12-07T01:37:35;4.70;99.90
7708;DHT22;3896;48.758;8.888;2022-12-07T01:40:01;4.70;99.90
7708;DHT22;3896;48.758;8.888;2022-12-07T01:42:28;4.60;99.90
7708;DHT22;3896;48.758;8.888;2022-12-07T01:47:46;4.60;99.90
7708;DHT22;3896;48.758;8.888;2022-12-07T01:50:13;4.60;99.90
7708;DHT22;3896;48.758;8.888;2022-12-07T01:52:40;4.60;99.90
7708;DHT22;3896;48.758;8.888;2022-12-07T01:55:09;4.60;99.90
7708;DHT22;3896;48.758;8.888;2022-12-07T01:57:38;4.60;99.90
7708;DHT22;3896;48.758;8.888;2022-12-07T02:00:07;4.60;99.90
7708;DHT22;3896;48.758;8.888;2022-12-07T02:02:36;4.60;99.90
7708;DHT22;3896;48.758;8.888;2022-12-07T02:05:04;4.60;99.90
7708;DHT22;3896;48.758;8.888;2022-12-07T02:07:31;4.60;99.90
7708;DHT22;3896;48.758;8.888;2022-12-07T02:10:11;4.60;99.90
7708;DHT22;3896;48.758;8.888;2022-12-07T02:12:36;4.60;99.90
7708;DHT22;3896;48.758;8.888;2022-12-07T02:15:02;4.60;99.90
7708;DHT22;3896;48.758;8.888;2022-12-07T02:17:34;4.60;99.90
7708;DHT22;3896;48.758;8.888;2022-12-07T02:28:35;4.50;99.90
7708;DHT22;3896;48.758;8.888;2022-12-07T02:31:08;4.50;99.90
7708;DHT22;3896;48.758;8.888;2022-12-07T02:33:40;4.50;99.90
7708;DHT22;3896;48.758;8.888;2022-12-07T02:36:12;4.50;99.90
7708;DHT22;3896;48.758;8.888;2022-12-07T02:41:46;4.50;99.90
7708;DHT22;3896;48.758;8.888;2022-12-07T02:44:20;4.50;99.90
7708;DHT22;3896;48.758;8.888;2022-12-07T02:47:02;4.50;99.90
7708;DHT22;3896;48.758;8.888;2022-12-07T02:49:29;4.50;99.90
7708;DHT22;3896;48.758;8.888;2022-12-07T02:51:55;4.50;99.90
7708;DHT22;3896;48.758;8.888;2022-12-07T02:54:22;4.50;99.90
7708;DHT22;3896;48.758;8.888;2022-12-07T02:56:56;4.50;99.90
7708;DHT22;3896;48.758;8.888;2022-12-07T03:11:14;4.40;99.90
7708;DHT22;3896;48.758;8.888;2022-12-07T03:13:59;4.40;99.90
7708;DHT22;3896;48.758;8.888;2022-12-07T03:16:39;4.40;99.90
7708;DHT22;3896;48.758;8.888;2022-12-07T03:19:15;4.40;99.90
7708;DHT22;3896;48.758;8.888;2022-12-07T03:22:01;4.40;99.90
7708;DHT22;3896;48.758;8.888;2022-12-07T03:24:32;4.40;99.90
7708;DHT22;3896;48.758;8.888;2022-12-07T03:27:04;4.40;99.90
7708;DHT22;3896;48.758;8.888;2022-12-07T03:29:37;4.30;99.90
7708;DHT22;3896;48.758;8.888;2022-12-07T03:32:23;4.30;99.90
7708;DHT22;3896;48.758;8.888;2022-12-07T03:37:35;4.30;99.90
7708;DHT22;3896;48.758;8.888;2022-12-07T03:40:28;4.30;99.90
7708;DHT22;3896;48.758;8.888;2022-12-07T03:42:56;4.30;99.90
7708;DHT22;3896;48.758;8.888;2022-12-07T03:45:33;4.30;99.90
7708;DHT22;3896;48.758;8.888;2022-12-07T03:48:40;4.30;99.90
7708;DHT22;3896;48.758;8.888;2022-12-07T03:51:31;4.30;99.90
7708;DHT22;3896;48.758;8.888;2022-12-07T03:57:12;4.20;99.90
7708;DHT22;3896;48.758;8.888;2022-12-07T03:59:39;4.20;99.90
7708;DHT22;3896;48.758;8.888;2022-12-07T04:02:06;4.20;99.90
7708;DHT22;3896;48.758;8.888;2022-12-07T04:04:32;4.20;99.90
7708;DHT22;3896;48.758;8.888;2022-12-07T04:06:58;4.20;99.90
7708;DHT22;3896;48.758;8.888;2022-12-07T04:09:24;4.20;99.90
7708;DHT22;3896;48.758;8.888;2022-12-07T04:11:50;4.20;99.90
7708;DHT22;3896;48.758;8.888;2022-12-07T04:14:16;4.20;99.90
7708;DHT22;3896;48.758;8.888;2022-12-07T04:16:49;4.20;99.90
7708;DHT22;3896;48.758;8.888;2022-12-07T04:19:16;4.20;99.90
7708;DHT22;3896;48.758;8.888;2022-12-07T04:21:42;4.20;99.90
7708;DHT22;3896;48.758;8.888;2022-12-07T04:24:08;4.20;99.90
7708;DHT22;3896;48.758;8.888;2022-12-07T04:26:33;4.20;99.90
7708;DHT22;3896;48.758;8.888;2022-12-07T04:31:28;4.20;99.90
7708;DHT22;3896;48.758;8.888;2022-12-07T04:33:53;4.20;99.90
7708;DHT22;3896;48.758;8.888;2022-12-07T04:36:19;4.20;99.90
7708;DHT22;3896;48.758;8.888;2022-12-07T04:38:46;4.10;99.90
7708;DHT22;3896;48.758;8.888;2022-12-07T04:41:11;4.10;99.90
7708;DHT22;3896;48.758;8.888;2022-12-07T04:43:37;4.10;99.90
7708;DHT22;3896;48.758;8.888;2022-12-07T04:46:03;4.10;99.90
7708;DHT22;3896;48.758;8.888;2022-12-07T04:48:29;4.10;99.90
7708;DHT22;3896;48.758;8.888;2022-12-07T04:50:55;4.10;99.90
7708;DHT22;3896;48.758;8.888;2022-12-07T04:53:20;4.00;99.90
7708;DHT22;3896;48.758;8.888;2022-12-07T04:55:46;4.00;99.90
7708;DHT22;3896;48.758;8.888;2022-12-07T04:58:12;4.00;99.90
7708;DHT22;3896;48.758;8.888;2022-12-07T05:00:38;3.90;99.90
7708;DHT22;3896;48.758;8.888;2022-12-07T05:03:04;3.90;99.90
7708;DHT22;3896;48.758;8.888;2022-12-07T05:05:29;3.90;99.90
7708;DHT22;3896;48.758;8.888;2022-12-07T05:07:55;3.90;99.90
7708;DHT22;3896;48.758;8.888;2022-12-07T05:10:21;3.80;99.90
7708;DHT22;3896;48.758;8.888;2022-12-07T05:12:47;3.80;99.90
7708;DHT22;3896;48.758;8.888;2022-12-07T05:15:14;3.80;99.90
7708;DHT22;3896;48.758;8.888;2022-12-07T05:17:39;3.70;99.90
7708;DHT22;3896;48.758;8.888;2022-12-07T05:20:06;3.60;99.90
7708;DHT22;3896;48.758;8.888;2022-12-07T05:22:32;3.60;99.90
7708;DHT22;3896;48.758;8.888;2022-12-07T05:24:57;3.60;99.90
7708;DHT22;3896;48.758;8.888;2022-12-07T05:27:23;3.50;99.90
7708;DHT22;3896;48.758;8.888;2022-12-07T05:29:50;3.50;99.90
7708;DHT22;3896;48.758;8.888;2022-12-07T05:32:15;3.40;99.90
7708;DHT22;3896;48.758;8.888;2022-12-07T05:34:41;3.30;99.90
7708;DHT22;3896;48.758;8.888;2022-12-07T05:37:06;3.30;99.90
7708;DHT22;3896;48.758;8.888;2022-12-07T05:39:32;3.30;99.90
7708;DHT22;3896;48.758;8.888;2022-12-07T05:41:57;3.20;99.90
7708;DHT22;3896;48.758;8.888;2022-12-07T05:44:44;3.20;99.90
7708;DHT22;3896;48.758;8.888;2022-12-07T05:47:11;3.10;99.90
7708;DHT22;3896;48.758;8.888;2022-12-07T05:49:37;3.10;99.90
7708;DHT22;3896;48.758;8.888;2022-12-07T05:52:03;3.00;99.90
7708;DHT22;3896;48.758;8.888;2022-12-07T05:54:29;3.00;99.90
7708;DHT22;3896;48.758;8.888;2022-12-07T05:56:55;2.90;99.90
7708;DHT22;3896;48.758;8.888;2022-12-07T05:59:21;2.90;99.90
7708;DHT22;3896;48.758;8.888;2022-12-07T06:01:54;2.90;99.90
7708;DHT22;3896;48.758;8.888;2022-12-07T06:04:21;2.80;99.90
7708;DHT22;3896;48.758;8.888;2022-12-07T06:06:47;2.80;99.90
7708;DHT22;3896;48.758;8.888;2022-12-07T06:09:13;2.80;99.90
7708;DHT22;3896;48.758;8.888;2022-12-07T06:11:40;2.80;99.90
7708;DHT22;3896;48.758;8.888;2022-12-07T06:14:24;2.70;99.90
7708;DHT22;3896;48.758;8.888;2022-12-07T06:16:50;2.70;99.90
7708;DHT22;3896;48.758;8.888;2022-12-07T06:19:16;2.70;99.90
7708;DHT22;3896;48.758;8.888;2022-12-07T06:21:41;2.70;99.90
7708;DHT22;3896;48.758;8.888;2022-12-07T06:24:08;2.70;99.90
7708;DHT22;3896;48.758;8.888;2022-12-07T06:26:34;2.70;99.90
7708;DHT22;3896;48.758;8.888;2022-12-07T06:29:00;2.60;99.90
7708;DHT22;3896;48.758;8.888;2022-12-07T06:31:25;2.60;99.90
7708;DHT22;3896;48.758;8.888;2022-12-07T06:33:51;2.60;99.90
7708;DHT22;3896;48.758;8.888;2022-12-07T06:36:17;2.60;99.90
7708;DHT22;3896;48.758;8.888;2022-12-07T06:38:42;2.60;99.90
7708;DHT22;3896;48.758;8.888;2022-12-07T06:41:08;2.60;99.90
7708;DHT22;3896;48.758;8.888;2022-12-07T06:43:34;2.60;99.90
7708;DHT22;3896;48.758;8.888;2022-12-07T06:45:59;2.60;99.90
7708;DHT22;3896;48.758;8.888;2022-12-07T06:48:25;2.60;99.90
7708;DHT22;3896;48.758;8.888;2022-12-07T06:50:50;2.60;99.90
7708;DHT22;3896;48.758;8.888;2022-12-07T06:53:16;2.60;99.90
7708;DHT22;3896;48.758;8.888;2022-12-07T06:55:41;2.60;99.90
7708;DHT22;3896;48.758;8.888;2022-12-07T06:58:07;2.60;99.90
7708;DHT22;3896;48.758;8.888;2022-12-07T07:00:32;2.60;99.90
7708;DHT22;3896;48.758;8.888;2022-12-07T07:03:00;2.60;99.90
7708;DHT22;3896;48.758;8.888;2022-12-07T07:05:25;2.60;99.90
7708;DHT22;3896;48.758;8.888;2022-12-07T07:07:51;2.60;99.90
7708;DHT22;3896;48.758;8.888;2022-12-07T07:10:18;2.60;99.90
7708;DHT22;3896;48.758;8.888;2022-12-07T07:12:44;2.60;99.90
7708;DHT22;3896;48.758;8.888;2022-12-07T07:15:10;2.60;99.90
7708;DHT22;3896;48.758;8.888;2022-12-07T07:17:36;2.70;99.90
7708;DHT22;3896;48.758;8.888;2022-12-07T07:20:02;2.60;99.90
7708;DHT22;3896;48.758;8.888;2022-12-07T07:22:28;2.70;99.90
7708;DHT22;3896;48.758;8.888;2022-12-07T07:24:53;2.70;99.90
7708;DHT22;3896;48.758;8.888;2022-12-07T07:27:19;2.70;99.90
7708;DHT22;3896;48.758;8.888;2022-12-07T07:29:44;2.70;99.90
7708;DHT22;3896;48.758;8.888;2022-12-07T07:32:10;2.70;99.90
7708;DHT22;3896;48.758;8.888;2022-12-07T07:34:35;2.70;99.90
7708;DHT22;3896;48.758;8.888;2022-12-07T07:37:01;2.70;99.90
7708;DHT22;3896;48.758;8.888;2022-12-07T07:39:27;2.70;99.90
7708;DHT22;3896;48.758;8.888;2022-12-07T07:41:52;2.70;99.90
7708;DHT22;3896;48.758;8.888;2022-12-07T07:44:18;2.70;99.90
7708;DHT22;3896;48.758;8.888;2022-12-07T07:46:43;2.80;99.90
7708;DHT22;3896;48.758;8.888;2022-12-07T07:49:09;2.80;99.90
7708;DHT22;3896;48.758;8.888;2022-12-07T07:51:36;2.80;99.90
7708;DHT22;3896;48.758;8.888;2022-12-07T07:54:02;2.80;99.90
7708;DHT22;3896;48.758;8.888;2022-12-07T07:56:27;2.80;99.90
7708;DHT22;3896;48.758;8.888;2022-12-07T07:59:02;2.80;99.90
7708;DHT22;3896;48.758;8.888;2022-12-07T08:01:28;2.90;99.90
7708;DHT22;3896;48.758;8.888;2022-12-07T08:03:53;2.90;99.90
7708;DHT22;3896;48.758;8.888;2022-12-07T08:06:19;2.90;99.90
7708;DHT22;3896;48.758;8.888;2022-12-07T08:08:44;2.90;99.90
7708;DHT22;3896;48.758;8.888;2022-12-07T08:11:10;2.90;99.90
7708;DHT22;3896;48.758;8.888;2022-12-07T08:13:36;2.90;99.90
7708;DHT22;3896;48.758;8.888;2022-12-07T08:16:10;3.00;99.90
7708;DHT22;3896;48.758;8.888;2022-12-07T08:18:40;3.00;99.90
7708;DHT22;3896;48.758;8.888;2022-12-07T08:21:07;3.00;99.90
7708;DHT22;3896;48.758;8.888;2022-12-07T08:23:33;3.00;99.90
7708;DHT22;3896;48.758;8.888;2022-12-07T08:26:08;3.10;99.90
7708;DHT22;3896;48.758;8.888;2022-12-07T08:28:34;3.10;99.90
7708;DHT22;3896;48.758;8.888;2022-12-07T08:31:01;3.10;99.90
7708;DHT22;3896;48.758;8.888;2022-12-07T08:33:27;3.20;99.90
7708;DHT22;3896;48.758;8.888;2022-12-07T08:35:53;3.20;99.90
7708;DHT22;3896;48.758;8.888;2022-12-07T08:38:18;3.20;99.90
7708;DHT22;3896;48.758;8.888;2022-12-07T08:40:44;3.20;99.90
7708;DHT22;3896;48.758;8.888;2022-12-07T08:43:09;3.30;99.90
7708;DHT22;3896;48.758;8.888;2022-12-07T08:45:35;3.30;99.90
7708;DHT22;3896;48.758;8.888;2022-12-07T08:48:06;3.30;99.90
7708;DHT22;3896;48.758;8.888;2022-12-07T08:50:32;3.30;99.90
7708;DHT22;3896;48.758;8.888;2022-12-07T08:52:59;3.40;99.90
7708;DHT22;3896;48.758;8.888;2022-12-07T08:55:25;3.40;99.90
7708;DHT22;3896;48.758;8.888;2022-12-07T08:57:52;3.40;99.90
7708;DHT22;3896;48.758;8.888;2022-12-07T09:00:18;3.50;99.90
7708;DHT22;3896;48.758;8.888;2022-12-07T09:02:44;3.50;99.90
7708;DHT22;3896;48.758;8.888;2022-12-07T09:05:11;3.60;99.90
7708;DHT22;3896;48.758;8.888;2022-12-07T09:07:37;3.60;99.90
7708;DHT22;3896;48.758;8.888;2022-12-07T09:10:05;3.60;99.90
7708;DHT22;3896;48.758;8.888;2022-12-07T09:12:31;3.70;99.90
7708;DHT22;3896;48.758;8.888;2022-12-07T09:14:56;3.70;99.90
7708;DHT22;3896;48.758;8.888;2022-12-07T09:17:22;3.80;99.90
7708;DHT22;3896;48.758;8.888;2022-12-07T09:19:50;3.80;99.90
7708;DHT22;3896;48.758;8.888;2022-12-07T09:22:15;3.90;99.90
7708;DHT22;3896;48.758;8.888;2022-12-07T09:24:41;3.90;99.90
7708;DHT22;3896;48.758;8.888;2022-12-07T09:27:06;4.00;99.90
7708;DHT22;3896;48.758;8.888;2022-12-07T09:29:32;4.00;99.90
7708;DHT22;3896;48.758;8.888;2022-12-07T09:31:57;4.00;99.90
7708;DHT22;3896;48.758;8.888;2022-12-07T09:34:23;4.00;99.90
7708;DHT22;3896;48.758;8.888;2022-12-07T09:36:48;4.10;99.90
7708;DHT22;3896;48.758;8.888;2022-12-07T09:39:14;4.10;99.90
7708;DHT22;3896;48.758;8.888;2022-12-07T09:41:42;4.20;99.90
7708;DHT22;3896;48.758;8.888;2022-12-07T09:44:14;4.20;99.90
7708;DHT22;3896;48.758;8.888;2022-12-07T09:46:43;4.30;99.90
7708;DHT22;3896;48.758;8.888;2022-12-07T09:49:12;4.30;99.90
7708;DHT22;3896;48.758;8.888;2022-12-07T09:51:38;4.40;99.90
7708;DHT22;3896;48.758;8.888;2022-12-07T09:54:04;4.50;99.90
7708;DHT22;3896;48.758;8.888;2022-12-07T09:56:30;4.60;99.90
7708;DHT22;3896;48.758;8.888;2022-12-07T09:59:00;4.60;99.90
7708;DHT22;3896;48.758;8.888;2022-12-07T10:01:33;4.60;99.90
7708;DHT22;3896;48.758;8.888;2022-12-07T10:04:11;4.70;99.90
7708;DHT22;3896;48.758;8.888;2022-12-07T10:06:38;4.80;99.90
7708;DHT22;3896;48.758;8.888;2022-12-07T10:09:15;4.80;99.90
7708;DHT22;3896;48.758;8.888;2022-12-07T10:12:04;4.90;99.90
7708;DHT22;3896;48.758;8.888;2022-12-07T10:14:32;4.90;99.90
7708;DHT22;3896;48.758;8.888;2022-12-07T10:16:58;5.00;99.90
7708;DHT22;3896;48.758;8.888;2022-12-07T10:19:32;5.00;99.90
7708;DHT22;3896;48.758;8.888;2022-12-07T10:24:29;5.10;99.90
7708;DHT22;3896;48.758;8.888;2022-12-07T10:26:55;5.20;99.90
7708;DHT22;3896;48.758;8.888;2022-12-07T10:29:24;5.20;99.90
7708;DHT22;3896;48.758;8.888;2022-12-07T10:31:59;5.30;99.90
7708;DHT22;3896;48.758;8.888;2022-12-07T10:39:46;5.40;99.90
7708;DHT22;3896;48.758;8.888;2022-12-07T10:42:22;5.50;99.90
7708;DHT22;3896;48.758;8.888;2022-12-07T10:44:50;5.60;99.90
7708;DHT22;3896;48.758;8.888;2022-12-07T10:50:30;5.70;99.90
7708;DHT22;3896;48.758;8.888;2022-12-07T11:07:02;6.00;99.90
7708;DHT22;3896;48.758;8.888;2022-12-07T11:10:05;6.00;99.90
7708;DHT22;3896;48.758;8.888;2022-12-07T11:17:42;6.10;99.90
7708;DHT22;3896;48.758;8.888;2022-12-07T11:20:43;6.10;99.90
7708;DHT22;3896;48.758;8.888;2022-12-07T11:23:42;6.10;99.90
7708;DHT22;3896;48.758;8.888;2022-12-07T11:26:23;6.10;99.90
7708;DHT22;3896;48.758;8.888;2022-12-07T11:34:35;6.20;99.90
7708;DHT22;3896;48.758;8.888;2022-12-07T11:37:03;6.20;99.90
7708;DHT22;3896;48.758;8.888;2022-12-07T11:39:38;6.30;99.90
7708;DHT22;3896;48.758;8.888;2022-12-07T11:42:16;6.30;99.90
7708;DHT22;3896;48.758;8.888;2022-12-07T11:44:56;6.30;99.90
7708;DHT22;3896;48.758;8.888;2022-12-07T11:47:45;6.30;99.90
7708;DHT22;3896;48.758;8.888;2022-12-07T11:52:58;6.30;99.90
7708;DHT22;3896;48.758;8.888;2022-12-07T11:56:04;6.30;99.90
7708;DHT22;3896;48.758;8.888;2022-12-07T12:01:11;6.40;99.90
7708;DHT22;3896;48.758;8.888;2022-12-07T12:03:46;6.40;99.90
7708;DHT22;3896;48.758;8.888;2022-12-07T12:06:13;6.40;99.90
7708;DHT22;3896;48.758;8.888;2022-12-07T12:14:32;6.40;99.90
7708;DHT22;3896;48.758;8.888;2022-12-07T12:20:19;6.40;99.90
7708;DHT22;3896;48.758;8.888;2022-12-07T12:22:53;6.40;99.90
7708;DHT22;3896;48.758;8.888;2022-12-07T12:25:24;6.40;99.90
7708;DHT22;3896;48.758;8.888;2022-12-07T12:27:52;6.40;99.90
7708;DHT22;3896;48.758;8.888;2022-12-07T12:30:38;6.40;99.90
7708;DHT22;3896;48.758;8.888;2022-12-07T12:33:19;6.40;99.90
7708;DHT22;3896;48.758;8.888;2022-12-07T12:46:53;6.30;99.90
7708;DHT22;3896;48.758;8.888;2022-12-07T12:51:58;6.40;99.90
7708;DHT22;3896;48.758;8.888;2022-12-07T12:57:29;6.30;99.90
7708;DHT22;3896;48.758;8.888;2022-12-07T13:00:01;6.40;99.90
7708;DHT22;3896;48.758;8.888;2022-12-07T13:02:31;6.40;99.90
7708;DHT22;3896;48.758;8.888;2022-12-07T13:15:44;6.40;99.90
7708;DHT22;3896;48.758;8.888;2022-12-07T13:23:27;6.40;99.90
7708;DHT22;3896;48.758;8.888;2022-12-07T13:26:04;6.40;99.60
7708;DHT22;3896;48.758;8.888;2022-12-07T13:28:37;6.40;99.80
7708;DHT22;3896;48.758;8.888;2022-12-07T13:31:20;6.40;99.50
7708;DHT22;3896;48.758;8.888;2022-12-07T13:33:48;6.30;99.60
7708;DHT22;3896;48.758;8.888;2022-12-07T13:36:27;6.40;99.90
7708;DHT22;3896;48.758;8.888;2022-12-07T13:38:58;6.40;99.60
7708;DHT22;3896;48.758;8.888;2022-12-07T13:41:26;6.40;99.50
7708;DHT22;3896;48.758;8.888;2022-12-07T13:43:58;6.40;99.30
7708;DHT22;3896;48.758;8.888;2022-12-07T13:46:30;6.40;99.10
7708;DHT22;3896;48.758;8.888;2022-12-07T13:48:56;6.50;99.00
7708;DHT22;3896;48.758;8.888;2022-12-07T13:51:28;6.50;98.50
7708;DHT22;3896;48.758;8.888;2022-12-07T13:53:57;6.50;98.30
7708;DHT22;3896;48.758;8.888;2022-12-07T13:56:28;6.50;98.20
7708;DHT22;3896;48.758;8.888;2022-12-07T13:58:56;6.50;98.30
7708;DHT22;3896;48.758;8.888;2022-12-07T14:01:23;6.50;98.00
7708;DHT22;3896;48.758;8.888;2022-12-07T14:03:49;6.60;98.00
7708;DHT22;3896;48.758;8.888;2022-12-07T14:06:16;6.60;98.10
7708;DHT22;3896;48.758;8.888;2022-12-07T14:08:42;6.60;98.10
7708;DHT22;3896;48.758;8.888;2022-12-07T14:11:16;6.60;98.20
7708;DHT22;3896;48.758;8.888;2022-12-07T14:14:02;6.60;98.90
7708;DHT22;3896;48.758;8.888;2022-12-07T14:16:32;6.60;98.90
7708;DHT22;3896;48.758;8.888;2022-12-07T14:19:00;6.60;98.90
7708;DHT22;3896;48.758;8.888;2022-12-07T14:21:32;6.60;98.70
7708;DHT22;3896;48.758;8.888;2022-12-07T14:24:18;6.60;98.70
7708;DHT22;3896;48.758;8.888;2022-12-07T14:26:46;6.60;98.80
7708;DHT22;3896;48.758;8.888;2022-12-07T14:31:51;6.60;99.00
7708;DHT22;3896;48.758;8.888;2022-12-07T14:34:20;6.60;99.10
7708;DHT22;3896;48.758;8.888;2022-12-07T14:36:46;6.60;99.10
7708;DHT22;3896;48.758;8.888;2022-12-07T14:39:11;6.60;99.20
7708;DHT22;3896;48.758;8.888;2022-12-07T14:41:37;6.50;99.00
7708;DHT22;3896;48.758;8.888;2022-12-07T14:44:19;6.50;99.00
7708;DHT22;3896;48.758;8.888;2022-12-07T14:46:46;6.50;99.20
7708;DHT22;3896;48.758;8.888;2022-12-07T14:49:12;6.50;98.80
7708;DHT22;3896;48.758;8.888;2022-12-07T14:51:39;6.50;98.90
7708;DHT22;3896;48.758;8.888;2022-12-07T14:54:06;6.50;98.90
7708;DHT22;3896;48.758;8.888;2022-12-07T14:56:36;6.40;98.70
7708;DHT22;3896;48.758;8.888;2022-12-07T14:59:02;6.40;98.70
7708;DHT22;3896;48.758;8.888;2022-12-07T15:01:27;6.40;98.80
7708;DHT22;3896;48.758;8.888;2022-12-07T15:03:53;6.40;98.80
7708;DHT22;3896;48.758;8.888;2022-12-07T15:06:18;6.40;98.70
7708;DHT22;3896;48.758;8.888;2022-12-07T15:08:44;6.30;98.70
7708;DHT22;3896;48.758;8.888;2022-12-07T15:11:19;6.30;98.70
7708;DHT22;3896;48.758;8.888;2022-12-07T15:13:44;6.30;98.70
7708;DHT22;3896;48.758;8.888;2022-12-07T15:16:28;6.30;98.80
7708;DHT22;3896;48.758;8.888;2022-12-07T15:18:54;6.20;98.90
7708;DHT22;3896;48.758;8.888;2022-12-07T15:21:19;6.20;99.10
7708;DHT22;3896;48.758;8.888;2022-12-07T15:23:46;6.20;99.30
7708;DHT22;3896;48.758;8.888;2022-12-07T15:26:12;6.10;99.30
7708;DHT22;3896;48.758;8.888;2022-12-07T15:28:39;6.10;99.40
7708;DHT22;3896;48.758;8.888;2022-12-07T15:31:11;6.00;99.40
7708;DHT22;3896;48.758;8.888;2022-12-07T15:33:37;6.00;99.50
7708;DHT22;3896;48.758;8.888;2022-12-07T15:36:02;6.00;99.70
7708;DHT22;3896;48.758;8.888;2022-12-07T15:38:28;5.90;99.60
7708;DHT22;3896;48.758;8.888;2022-12-07T15:40:55;5.80;99.70
7708;DHT22;3896;48.758;8.888;2022-12-07T15:43:21;5.80;99.80
7708;DHT22;3896;48.758;8.888;2022-12-07T15:46:05;5.80;99.90
7708;DHT22;3896;48.758;8.888;2022-12-07T15:48:30;5.70;99.80
7708;DHT22;3896;48.758;8.888;2022-12-07T15:51:04;5.70;99.90
7708;DHT22;3896;48.758;8.888;2022-12-07T15:53:30;5.60;99.90
7708;DHT22;3896;48.758;8.888;2022-12-07T15:55:55;5.60;99.90
7708;DHT22;3896;48.758;8.888;2022-12-07T15:58:21;5.60;99.90
7708;DHT22;3896;48.758;8.888;2022-12-07T16:00:46;5.60;99.90
7708;DHT22;3896;48.758;8.888;2022-12-07T16:03:13;5.50;99.90
7708;DHT22;3896;48.758;8.888;2022-12-07T16:05:39;5.50;99.90
7708;DHT22;3896;48.758;8.888;2022-12-07T16:08:04;5.40;99.90
7708;DHT22;3896;48.758;8.888;2022-12-07T16:10:30;5.40;99.90
7708;DHT22;3896;48.758;8.888;2022-12-07T16:12:57;5.40;99.90
7708;DHT22;3896;48.758;8.888;2022-12-07T16:15:22;5.40;99.90
7708;DHT22;3896;48.758;8.888;2022-12-07T16:17:50;5.30;99.90
7708;DHT22;3896;48.758;8.888;2022-12-07T16:20:15;5.30;99.90
7708;DHT22;3896;48.758;8.888;2022-12-07T16:22:41;5.30;99.90
7708;DHT22;3896;48.758;8.888;2022-12-07T16:25:06;5.20;99.90
7708;DHT22;3896;48.758;8.888;2022-12-07T16:27:32;5.20;99.90
7708;DHT22;3896;48.758;8.888;2022-12-07T16:29:58;5.20;99.90
7708;DHT22;3896;48.758;8.888;2022-12-07T16:32:23;5.20;99.90
7708;DHT22;3896;48.758;8.888;2022-12-07T16:34:49;5.10;99.90
7708;DHT22;3896;48.758;8.888;2022-12-07T16:37:14;5.10;99.90
7708;DHT22;3896;48.758;8.888;2022-12-07T16:39:40;5.10;99.90
7708;DHT22;3896;48.758;8.888;2022-12-07T16:42:05;5.10;99.90
7708;DHT22;3896;48.758;8.888;2022-12-07T16:44:31;5.00;99.90
7708;DHT22;3896;48.758;8.888;2022-12-07T16:46:57;5.00;99.90
7708;DHT22;3896;48.758;8.888;2022-12-07T16:49:22;5.00;99.90
7708;DHT22;3896;48.758;8.888;2022-12-07T16:51:50;4.90;99.90
7708;DHT22;3896;48.758;8.888;2022-12-07T16:54:15;4.90;99.90
7708;DHT22;3896;48.758;8.888;2022-12-07T16:56:41;4.90;99.90
7708;DHT22;3896;48.758;8.888;2022-12-07T16:59:07;4.90;99.90
7708;DHT22;3896;48.758;8.888;2022-12-07T17:01:33;4.80;99.90
7708;DHT22;3896;48.758;8.888;2022-12-07T17:04:00;4.80;99.90
7708;DHT22;3896;48.758;8.888;2022-12-07T17:06:27;4.80;99.90
7708;DHT22;3896;48.758;8.888;2022-12-07T17:08:53;4.70;99.90
7708;DHT22;3896;48.758;8.888;2022-12-07T17:11:25;4.60;99.90
7708;DHT22;3896;48.758;8.888;2022-12-07T17:13:51;4.60;99.90
7708;DHT22;3896;48.758;8.888;2022-12-07T17:16:35;4.60;99.90
7708;DHT22;3896;48.758;8.888;2022-12-07T17:19:09;4.50;99.90
7708;DHT22;3896;48.758;8.888;2022-12-07T17:21:36;4.50;99.90
7708;DHT22;3896;48.758;8.888;2022-12-07T17:24:04;4.50;99.90
7708;DHT22;3896;48.758;8.888;2022-12-07T17:26:31;4.50;99.90
7708;DHT22;3896;48.758;8.888;2022-12-07T17:28:57;4.40;99.90
7708;DHT22;3896;48.758;8.888;2022-12-07T17:31:23;4.40;99.90
7708;DHT22;3896;48.758;8.888;2022-12-07T17:33:49;4.40;99.90
7708;DHT22;3896;48.758;8.888;2022-12-07T17:36:23;4.40;99.90
7708;DHT22;3896;48.758;8.888;2022-12-07T17:38:50;4.30;99.90
7708;DHT22;3896;48.758;8.888;2022-12-07T17:41:19;4.30;99.90
7708;DHT22;3896;48.758;8.888;2022-12-07T17:44:05;4.30;99.90
7708;DHT22;3896;48.758;8.888;2022-12-07T17:46:31;4.30;99.90
7708;DHT22;3896;48.758;8.888;2022-12-07T17:48:58;4.20;99.90
7708;DHT22;3896;48.758;8.888;2022-12-07T17:51:24;4.20;99.90
7708;DHT22;3896;48.758;8.888;2022-12-07T17:54:08;4.20;99.90
7708;DHT22;3896;48.758;8.888;2022-12-07T17:56:35;4.10;99.90
7708;DHT22;3896;48.758;8.888;2022-12-07T17:59:01;4.10;99.90
7708;DHT22;3896;48.758;8.888;2022-12-07T18:01:26;4.10;99.90
7708;DHT22;3896;48.758;8.888;2022-12-07T18:03:52;4.00;99.90
7708;DHT22;3896;48.758;8.888;2022-12-07T18:06:18;4.00;99.90
7708;DHT22;3896;48.758;8.888;2022-12-07T18:08:43;4.00;99.90
7708;DHT22;3896;48.758;8.888;2022-12-07T18:11:09;3.90;99.90
7708;DHT22;3896;48.758;8.888;2022-12-07T18:13:35;3.90;99.90
7708;DHT22;3896;48.758;8.888;2022-12-07T18:16:02;3.80;99.90
7708;DHT22;3896;48.758;8.888;2022-12-07T18:18:28;3.80;99.90
7708;DHT22;3896;48.758;8.888;2022-12-07T18:20:53;3.80;99.90
7708;DHT22;3896;48.758;8.888;2022-12-07T18:23:19;3.80;99.90
7708;DHT22;3896;48.758;8.888;2022-12-07T18:25:49;3.70;99.90
7708;DHT22;3896;48.758;8.888;2022-12-07T18:28:15;3.70;99.90